Terminal Aerodrome Forecast
Issued by NWS Charleston, WV

Current Version | Previous Version | Text Only | Print | Product List | Glossary Off
Versions: 1 2 3 4 5 6 7 8 9 10 11 12 13 14 15 16 17 18 19 20 21 22 23 24 25 26 27 28 29

137
FTUS41 KRLX 301143 CCA
TAFEKN
TAF COR
KEKN 301143Z 3012/0112 11009G16KT 6SM SHRA BKN022 BKN040
     FM301400 13008G18KT 6SM SHRA VCTS BKN025CB BKN050
     FM010200 13005KT 2SM SHRA BKN008=

USA.gov is the U.S. government's official web portal to all federal, state and local government web resources and services.